Time;durP1;ratioP1;P1;durP2;ratioP2;P2;SDS_P1;SDS_P2;PMS_P1;PMS_P2;Temp;Humidity;BMP_temperature;BMP_pressure;BME280_temperature;BME280_humidity;BME280_pressure;Samples;Min_cycle;Max_cycle;Signal;HPM_P1;HPM_P2
2022/02/04 00:03:03;;;;;;;18.08;11.60;;;6.90;99.90;;;;;;6217328;23;20140;-60
2022/02/04 00:04:44;;;;;;;17.63;11.00;;;6.90;99.90;;;;;;6217059;23;20260;-59
2022/02/04 00:21:09;;;;;;;18.33;11.52;;;7.00;99.90;;;;;;6216521;23;20215;-60
2022/02/04 00:23:27;;;;;;;18.88;11.60;;;6.90;99.90;;;;;;6216642;23;20180;-60
2022/02/04 00:26:03;;;;;;;18.15;11.52;;;6.90;99.90;;;;;;6217420;23;20121;-60
2022/02/04 00:28:43;;;;;;;21.02;12.23;;;6.90;99.90;;;;;;6217401;23;20207;-60
2022/02/04 00:31:25;;;;;;;21.25;11.93;;;6.90;99.90;;;;;;6216775;23;20593;-60
2022/02/04 00:33:54;;;;;;;20.40;13.18;;;6.90;99.90;;;;;;6217256;23;20140;-60
2022/02/04 00:36:26;;;;;;;20.83;12.30;;;6.90;99.90;;;;;;6217218;23;20629;-60
2022/02/04 00:38:57;;;;;;;21.52;12.63;;;6.90;99.90;;;;;;6217978;23;20428;-60
2022/02/04 00:41:26;;;;;;;20.30;12.57;;;6.80;99.90;;;;;;6217291;23;20129;-60
2022/02/04 00:43:55;;;;;;;19.70;12.35;;;6.80;99.90;;;;;;6217008;23;20172;-60
2022/02/04 00:46:29;;;;;;;22.30;13.60;;;6.80;99.90;;;;;;6216626;23;20436;-60
2022/02/04 00:49:06;;;;;;;20.60;12.57;;;6.80;99.90;;;;;;6217205;23;20129;-60
2022/02/04 00:51:40;;;;;;;21.55;12.68;;;6.80;99.90;;;;;;6216987;23;20212;-60
2022/02/04 00:54:23;;;;;;;21.00;13.13;;;6.70;99.90;;;;;;6216763;23;20427;-60
2022/02/04 01:26:37;;;;;;;23.58;12.63;;;6.60;99.90;;;;;;6216464;23;20618;-59
2022/02/04 01:29:03;;;;;;;21.65;13.02;;;6.60;99.90;;;;;;6216808;23;20175;-59
2022/02/04 01:31:29;;;;;;;20.77;12.90;;;6.60;99.90;;;;;;6216426;23;20568;-58
2022/02/04 01:33:55;;;;;;;24.17;14.45;;;6.60;99.90;;;;;;6216783;23;20145;-57
2022/02/04 01:36:21;;;;;;;22.90;13.68;;;6.60;99.90;;;;;;6216584;23;20476;-59
2022/02/04 01:38:47;;;;;;;21.98;13.13;;;6.60;99.90;;;;;;6216738;23;20557;-58
2022/02/04 01:41:12;;;;;;;23.23;13.50;;;6.60;99.90;;;;;;6216223;23;20569;-58
2022/02/04 01:43:39;;;;;;;22.05;13.15;;;6.60;99.90;;;;;;6216262;23;20180;-60
2022/02/04 01:46:06;;;;;;;26.02;14.25;;;6.60;99.90;;;;;;6216713;23;20220;-61
2022/02/04 01:48:33;;;;;;;25.35;13.90;;;6.60;99.90;;;;;;6216592;23;20482;-59
2022/02/04 01:50:59;;;;;;;21.88;12.82;;;6.60;99.90;;;;;;6216450;23;20149;-59
2022/02/04 01:53:28;;;;;;;22.63;13.43;;;6.60;99.90;;;;;;6216324;23;20156;-60
2022/02/04 01:55:55;;;;;;;26.52;14.27;;;6.70;99.90;;;;;;6216399;23;20183;-60
2022/02/04 01:58:21;;;;;;;22.85;13.05;;;6.70;99.90;;;;;;6216251;23;20149;-60
2022/02/04 02:00:46;;;;;;;21.77;13.63;;;6.70;99.90;;;;;;6216021;23;20167;-59
2022/02/04 02:03:12;;;;;;;26.00;13.80;;;6.70;99.90;;;;;;6216114;23;20180;-59
2022/02/04 02:05:38;;;;;;;23.02;12.80;;;6.70;99.90;;;;;;6216147;23;20144;-59
2022/02/04 02:08:10;;;;;;;24.35;13.18;;;6.70;99.90;;;;;;6216132;23;20137;-59
2022/02/04 02:10:35;;;;;;;22.60;13.68;;;6.80;99.90;;;;;;6216296;23;20145;-60
2022/02/04 02:15:38;;;;;;;19.50;12.43;;;6.80;99.90;;;;;;6216427;23;20246;-60
2022/02/04 02:35:14;;;;;;;23.45;13.10;;;6.80;99.90;;;;;;6218533;23;20195;-62
2022/02/04 02:38:39;;;;;;;22.40;13.02;;;6.80;99.90;;;;;;6218053;23;20153;-62
2022/02/04 02:43:33;;;;;;;22.45;13.48;;;6.90;99.90;;;;;;6218796;23;20256;-63
2022/02/04 02:49:21;;;;;;;23.08;14.25;;;6.80;99.90;;;;;;6218130;23;20553;-63
2022/02/04 02:51:57;;;;;;;22.65;13.43;;;6.80;99.90;;;;;;6217867;23;20591;-62
2022/02/04 02:57:23;;;;;;;24.75;13.40;;;6.80;99.90;;;;;;6218206;23;20163;-62
2022/02/04 03:00:06;;;;;;;24.27;14.75;;;6.80;99.90;;;;;;6218530;23;20247;-61
2022/02/04 03:02:33;;;;;;;25.88;13.10;;;6.70;99.90;;;;;;6217971;23;20133;-64
2022/02/04 03:04:58;;;;;;;24.33;14.65;;;6.80;99.90;;;;;;6218098;23;20191;-63
2022/02/04 03:07:24;;;;;;;24.33;14.10;;;6.80;99.90;;;;;;6217685;23;20175;-63
2022/02/04 03:09:49;;;;;;;25.10;14.75;;;6.80;99.90;;;;;;6217694;23;20141;-62
2022/02/04 03:12:15;;;;;;;22.35;13.68;;;6.80;99.90;;;;;;6217644;23;20538;-63
2022/02/04 03:14:40;;;;;;;23.65;14.43;;;6.70;99.90;;;;;;6217618;23;20152;-63
2022/02/04 03:17:09;;;;;;;26.52;15.52;;;6.80;99.90;;;;;;6217828;23;20153;-62
2022/02/04 03:19:35;;;;;;;22.52;13.65;;;6.70;99.90;;;;;;6217956;23;20148;-63
2022/02/04 03:22:06;;;;;;;22.58;13.80;;;6.70;99.90;;;;;;6218011;23;20215;-62
2022/02/04 03:24:32;;;;;;;24.83;14.13;;;6.70;99.90;;;;;;6217870;23;20165;-63
2022/02/04 03:27:02;;;;;;;24.80;14.38;;;6.70;99.90;;;;;;6217910;23;20153;-62
2022/02/04 03:29:34;;;;;;;25.08;14.70;;;6.70;99.90;;;;;;6218543;23;20179;-62
2022/02/04 03:32:05;;;;;;;25.80;13.88;;;6.70;99.90;;;;;;6217638;23;20479;-61
2022/02/04 03:34:31;;;;;;;25.80;14.38;;;6.70;99.90;;;;;;6217764;23;20549;-62
2022/02/04 03:36:57;;;;;;;25.95;14.27;;;6.70;99.90;;;;;;6217712;23;20141;-62
2022/02/04 03:39:22;;;;;;;26.17;14.73;;;6.70;99.90;;;;;;6217373;23;20163;-62
2022/02/04 03:41:48;;;;;;;25.17;14.25;;;6.70;99.90;;;;;;6217803;23;20159;-62
2022/02/04 03:44:13;;;;;;;23.75;14.13;;;6.70;99.90;;;;;;6217504;23;20164;-62
2022/02/04 03:46:38;;;;;;;25.75;14.40;;;6.70;99.90;;;;;;6217375;23;20198;-61
2022/02/04 03:49:04;;;;;;;27.70;14.38;;;6.70;99.90;;;;;;6218320;23;20145;-63
2022/02/04 03:51:30;;;;;;;25.20;14.40;;;6.70;99.90;;;;;;6217227;23;20141;-63
2022/02/04 03:53:55;;;;;;;29.65;15.55;;;6.70;99.90;;;;;;6217408;23;20279;-62
2022/02/04 03:56:21;;;;;;;26.45;14.55;;;6.70;99.90;;;;;;6217141;23;20140;-62
2022/02/04 03:58:46;;;;;;;24.50;14.05;;;6.70;99.90;;;;;;6217110;23;20156;-63
2022/02/04 04:01:12;;;;;;;24.52;14.18;;;6.70;99.90;;;;;;6217620;23;20141;-63
2022/02/04 04:03:38;;;;;;;27.50;14.48;;;6.70;99.90;;;;;;6217136;23;20252;-63
2022/02/04 04:06:03;;;;;;;26.48;14.82;;;6.70;99.90;;;;;;6217983;23;20542;-63
2022/02/04 04:08:29;;;;;;;21.27;13.82;;;6.70;99.90;;;;;;6217027;23;20137;-62
2022/02/04 04:10:55;;;;;;;26.30;15.68;;;6.70;99.90;;;;;;6217454;23;20156;-62
2022/02/04 04:13:20;;;;;;;24.75;14.27;;;6.70;99.90;;;;;;6217287;23;20216;-63
2022/02/04 04:15:46;;;;;;;22.95;13.75;;;6.60;99.90;;;;;;6217005;23;20152;-62
2022/02/04 04:18:15;;;;;;;26.42;14.88;;;6.60;99.90;;;;;;6217121;23;20145;-63
2022/02/04 04:20:43;;;;;;;26.27;14.32;;;6.60;99.90;;;;;;6216884;23;20141;-60
2022/02/04 04:23:09;;;;;;;24.45;14.00;;;6.60;99.90;;;;;;6217139;23;20179;-62
2022/02/04 04:25:35;;;;;;;27.25;14.80;;;6.60;99.90;;;;;;6217015;23;20144;-62
2022/02/04 04:28:00;;;;;;;28.20;15.05;;;6.60;99.90;;;;;;6217281;23;20149;-63
2022/02/04 04:30:26;;;;;;;27.55;15.40;;;6.60;99.90;;;;;;6216904;23;20176;-63
2022/02/04 04:32:54;;;;;;;25.52;13.70;;;6.60;99.90;;;;;;6216758;23;20551;-63
2022/02/04 04:35:22;;;;;;;26.40;13.75;;;6.60;99.90;;;;;;6217033;23;20455;-62
2022/02/04 04:37:52;;;;;;;27.67;15.00;;;6.60;99.90;;;;;;6217495;23;20149;-61
2022/02/04 04:45:51;;;;;;;27.48;15.32;;;6.50;99.90;;;;;;6217298;23;20169;-62
2022/02/04 05:26:53;;;;;;;30.00;15.30;;;6.70;99.90;;;;;;6216440;23;20140;-62
2022/02/04 05:29:16;;;;;;;28.27;14.95;;;6.70;99.90;;;;;;6216310;23;20172;-63
2022/02/04 05:31:42;;;;;;;27.88;15.32;;;6.70;99.90;;;;;;6216343;23;20144;-63
2022/02/04 05:34:07;;;;;;;27.08;14.90;;;6.70;99.90;;;;;;6216238;23;20149;-63
2022/02/04 05:36:37;;;;;;;28.38;15.57;;;6.70;99.90;;;;;;6216554;23;20155;-63
2022/02/04 05:39:03;;;;;;;26.83;14.40;;;6.70;99.90;;;;;;6216856;23;20232;-62
2022/02/04 05:41:32;;;;;;;29.85;14.38;;;6.70;99.90;;;;;;6216884;23;20203;-63
2022/02/04 05:44:03;;;;;;;28.13;14.23;;;6.70;99.90;;;;;;6216531;23;20536;-64
2022/02/04 05:46:33;;;;;;;27.73;14.88;;;6.70;99.90;;;;;;6216959;23;20144;-62
2022/02/04 05:49:00;;;;;;;28.13;14.10;;;6.70;99.90;;;;;;6216814;23;20145;-62
2022/02/04 05:51:40;;;;;;;30.55;14.85;;;6.70;99.90;;;;;;6216710;23;20169;-62
2022/02/04 05:54:17;;;;;;;25.45;13.60;;;6.70;99.90;;;;;;6215394;23;20171;-62
2022/02/04 05:57:21;;;;;;;27.08;14.20;;;6.70;99.90;;;;;;6216243;23;20541;-62
2022/02/04 06:00:10;;;;;;;23.52;13.88;;;6.70;99.90;;;;;;6215516;23;20164;-63
2022/02/04 06:02:33;;;;;;;26.45;14.38;;;6.70;99.90;;;;;;6215751;23;20149;-63
2022/02/04 06:05:45;;;;;;;27.52;14.88;;;6.70;99.90;;;;;;6216330;23;20149;-62
2022/02/04 06:10:58;;;;;;;24.83;13.82;;;6.70;99.90;;;;;;6216572;23;20136;-62
2022/02/04 06:24:04;;;;;;;27.98;16.25;;;6.80;99.90;;;;;;6215738;23;20310;-61
2022/02/04 06:26:30;;;;;;;27.95;15.45;;;6.80;99.90;;;;;;6216625;23;20165;-62
2022/02/04 06:28:56;;;;;;;27.65;15.38;;;6.80;99.90;;;;;;6216367;23;20145;-62
2022/02/04 06:31:22;;;;;;;28.70;15.45;;;6.80;99.90;;;;;;6216169;23;20537;-62
2022/02/04 06:33:48;;;;;;;26.30;15.02;;;6.90;99.90;;;;;;6215958;23;20190;-63
2022/02/04 06:36:13;;;;;;;27.48;15.25;;;6.90;99.90;;;;;;6215890;23;20149;-63
2022/02/04 06:38:39;;;;;;;25.98;15.00;;;6.90;99.90;;;;;;6216243;23;20564;-62
2022/02/04 06:41:04;;;;;;;26.60;14.95;;;6.90;99.90;;;;;;6216060;23;20141;-62
2022/02/04 06:43:31;;;;;;;28.52;15.00;;;6.90;99.90;;;;;;6215668;23;20171;-64
2022/02/04 06:45:57;;;;;;;25.83;14.38;;;6.90;99.90;;;;;;6216276;23;20145;-63
2022/02/04 06:48:22;;;;;;;28.20;15.43;;;6.90;99.90;;;;;;6215731;23;20141;-62
2022/02/04 06:50:48;;;;;;;27.45;14.38;;;7.00;99.90;;;;;;6215872;23;20199;-63
2022/02/04 06:53:14;;;;;;;27.05;15.23;;;7.00;99.90;;;;;;6215776;23;20141;-61
2022/02/04 06:55:40;;;;;;;25.17;14.80;;;7.00;99.90;;;;;;6216018;23;20145;-64
2022/02/04 06:58:07;;;;;;;26.23;15.05;;;7.00;99.90;;;;;;6215791;23;20149;-64
2022/02/04 07:00:32;;;;;;;30.63;16.77;;;7.00;99.90;;;;;;6215569;23;20160;-64
2022/02/04 07:02:58;;;;;;;27.35;15.50;;;7.00;99.90;;;;;;6215706;23;20173;-63
2022/02/04 07:05:24;;;;;;;28.15;15.27;;;7.00;99.90;;;;;;6216178;23;20165;-63
2022/02/04 07:08:01;;;;;;;26.08;14.98;;;7.00;99.90;;;;;;6216112;23;20141;-63
2022/02/04 07:10:36;;;;;;;30.10;16.38;;;7.00;99.90;;;;;;6216309;23;20140;-61
2022/02/04 07:13:23;;;;;;;27.02;15.70;;;7.00;99.90;;;;;;6216024;23;20450;-62
2022/02/04 07:16:20;;;;;;;30.15;16.92;;;7.00;99.90;;;;;;6218116;23;20204;-62
2022/02/04 07:21:18;;;;;;;27.75;15.85;;;7.10;99.90;;;;;;6217529;23;20221;-62
2022/02/04 07:23:43;;;;;;;27.73;15.80;;;7.10;99.90;;;;;;6217446;23;20176;-63
2022/02/04 07:26:09;;;;;;;27.70;15.20;;;7.10;99.90;;;;;;6218148;23;20141;-63
2022/02/04 07:28:34;;;;;;;29.08;16.25;;;7.10;99.90;;;;;;6218165;23;20438;-63
2022/02/04 07:31:02;;;;;;;29.25;15.85;;;7.10;99.90;;;;;;6218068;23;20145;-63
2022/02/04 07:41:42;;;;;;;26.75;15.63;;;7.20;99.90;;;;;;6217772;23;20143;-63
2022/02/04 07:44:08;;;;;;;26.23;15.27;;;7.20;99.90;;;;;;6217041;23;20259;-63
2022/02/04 07:46:34;;;;;;;22.60;14.55;;;7.20;99.90;;;;;;6217464;23;20137;-63
2022/02/04 07:49:00;;;;;;;26.65;15.65;;;7.20;99.90;;;;;;6216889;23;20207;-63
2022/02/04 07:51:25;;;;;;;26.52;15.32;;;7.20;99.90;;;;;;6216905;23;20454;-65
2022/02/04 07:53:51;;;;;;;30.40;14.95;;;7.20;99.90;;;;;;6217368;23;20149;-63
2022/02/04 07:56:20;;;;;;;26.73;15.68;;;7.30;99.90;;;;;;6217255;23;20153;-62
2022/02/04 07:58:56;;;;;;;26.38;14.63;;;7.30;99.90;;;;;;6217264;23;20172;-63
2022/02/04 08:01:26;;;;;;;25.17;14.30;;;7.30;99.90;;;;;;6216744;23;20152;-64
2022/02/04 08:04:14;;;;;;;23.55;13.73;;;7.40;99.90;;;;;;6217120;23;20459;-64
2022/02/04 08:06:44;;;;;;;27.98;15.32;;;7.40;99.90;;;;;;6216210;23;20140;-64
2022/02/04 08:09:35;;;;;;;25.30;14.20;;;7.40;99.90;;;;;;6217177;23;20136;-64
2022/02/04 08:15:05;;;;;;;25.27;15.10;;;7.40;99.90;;;;;;6217038;23;20139;-64
2022/02/04 08:18:02;;;;;;;25.27;14.88;;;7.30;99.90;;;;;;6217066;23;20129;-64
2022/02/04 08:23:23;;;;;;;24.50;15.02;;;7.30;99.90;;;;;;6217453;23;20248;-64
2022/02/04 08:26:05;;;;;;;24.50;13.80;;;7.30;99.90;;;;;;6217404;23;20436;-64
2022/02/04 08:31:38;;;;;;;25.02;13.50;;;7.30;99.90;;;;;;6214642;23;20618;-63
2022/02/04 08:37:01;;;;;;;23.80;15.20;;;7.30;99.90;;;;;;6216890;23;20140;-65
2022/02/04 08:46:30;;;;;;;31.08;17.65;;;7.30;99.90;;;;;;6217273;23;20151;-62
2022/02/04 08:50:58;;;;;;;22.60;13.30;;;7.30;99.90;;;;;;6201708;23;20178;-64
2022/02/04 08:55:59;;;;;;;23.75;13.40;;;7.40;99.90;;;;;;6216726;23;20191;-63
2022/02/04 09:01:06;;;;;;;22.52;13.23;;;7.40;99.90;;;;;;6217013;23;20156;-64
2022/02/04 09:06:14;;;;;;;23.92;13.70;;;7.40;99.90;;;;;;6216932;23;20149;-64
2022/02/04 09:08:50;;;;;;;23.98;13.25;;;7.50;99.90;;;;;;6216866;23;20133;-64
2022/02/04 09:12:06;;;;;;;23.10;13.77;;;7.40;99.90;;;;;;6216764;23;20129;-64
2022/02/04 09:19:20;;;;;;;23.88;13.50;;;7.40;99.90;;;;;;6217240;23;20140;-64
2022/02/04 09:24:24;;;;;;;23.52;13.65;;;7.40;99.90;;;;;;6216872;23;20240;-63
2022/02/04 09:26:52;;;;;;;24.10;13.93;;;7.40;99.90;;;;;;6216319;23;20151;-63
2022/02/04 09:29:18;;;;;;;22.45;13.80;;;7.40;99.90;;;;;;6216306;23;20137;-63
2022/02/04 09:31:44;;;;;;;19.92;12.93;;;7.30;99.90;;;;;;6216270;23;20161;-63
2022/02/04 09:34:10;;;;;;;21.95;13.52;;;7.40;99.90;;;;;;6216809;23;20318;-63
2022/02/04 09:36:36;;;;;;;26.75;14.32;;;7.40;99.90;;;;;;6216012;23;20145;-63
2022/02/04 09:39:04;;;;;;;22.63;13.77;;;7.40;99.90;;;;;;6216699;23;20160;-64
2022/02/04 09:41:30;;;;;;;21.92;13.35;;;7.50;99.90;;;;;;6216159;23;20152;-64
2022/02/04 09:43:55;;;;;;;21.67;13.40;;;7.50;99.90;;;;;;6215421;23;20173;-64
2022/02/04 09:46:21;;;;;;;21.38;13.85;;;7.60;99.90;;;;;;6216324;23;20170;-63
2022/02/04 09:48:52;;;;;;;21.42;12.70;;;7.60;99.90;;;;;;6216143;23;20216;-64
2022/02/04 09:51:22;;;;;;;21.63;13.43;;;7.60;99.90;;;;;;6216157;23;20125;-64
2022/02/04 10:07:58;;;;;;;22.52;14.50;;;7.90;99.90;;;;;;6216404;23;20140;-64
2022/02/04 10:18:32;;;;;;;23.65;14.05;;;8.00;99.90;;;;;;6216314;23;20140;-63
2022/02/04 10:21:05;;;;;;;22.70;14.88;;;8.10;99.90;;;;;;6215879;23;20593;-63
2022/02/04 10:23:45;;;;;;;21.98;13.48;;;8.10;99.90;;;;;;6216817;23;20291;-65
2022/02/04 10:26:11;;;;;;;23.95;14.25;;;8.10;99.90;;;;;;6216251;23;20144;-64
2022/02/04 10:28:36;;;;;;;23.17;14.68;;;8.10;99.90;;;;;;6216419;23;20152;-63
2022/02/04 10:31:07;;;;;;;21.27;13.73;;;8.10;99.90;;;;;;6216242;23;20193;-64
2022/02/04 10:33:33;;;;;;;23.55;15.27;;;8.10;99.90;;;;;;6215460;23;20179;-64
2022/02/04 10:36:00;;;;;;;25.25;15.05;;;8.20;99.90;;;;;;6217548;23;20181;-63
2022/02/04 10:38:39;;;;;;;23.60;15.00;;;8.20;99.90;;;;;;6216331;23;20159;-63
2022/02/04 10:43:59;;;;;;;20.63;14.15;;;8.30;99.90;;;;;;6216855;23;20169;-63
2022/02/04 10:46:38;;;;;;;26.27;15.70;;;8.30;99.90;;;;;;6216575;23;20187;-63
2022/02/04 10:51:57;;;;;;;22.38;14.57;;;8.20;99.90;;;;;;6218555;23;20192;-63
2022/02/04 10:57:44;;;;;;;24.83;15.30;;;8.30;99.90;;;;;;6217989;23;20156;-63
2022/02/04 11:00:09;;;;;;;23.38;15.13;;;8.20;99.90;;;;;;6215220;23;20235;-64
2022/02/04 11:02:39;;;;;;;24.23;15.10;;;8.30;99.90;;;;;;6216888;23;20621;-64
2022/02/04 11:05:18;;;;;;;23.52;14.93;;;8.30;99.90;;;;;;6217880;23;20417;-63
2022/02/04 11:10:33;;;;;;;23.75;15.55;;;8.30;99.90;;;;;;6218088;23;20218;-63
2022/02/04 11:52:29;;;;;;;22.95;15.15;;;8.80;99.90;;;;;;6217450;23;20164;-63
2022/02/04 11:55:08;;;;;;;22.27;15.10;;;8.80;99.90;;;;;;6217648;23;20143;-64
2022/02/04 11:57:34;;;;;;;21.45;14.20;;;8.80;99.90;;;;;;6217415;23;20159;-63
2022/02/04 12:00:15;;;;;;;23.13;15.15;;;8.90;99.90;;;;;;6217200;23;20168;-64
2022/02/04 12:02:41;;;;;;;21.50;14.85;;;8.90;99.90;;;;;;6217071;23;20412;-63
2022/02/04 12:05:11;;;;;;;22.35;15.82;;;9.00;99.90;;;;;;6217291;23;20137;-63
2022/02/04 12:07:38;;;;;;;26.13;15.60;;;9.00;99.90;;;;;;6217394;23;20129;-63
2022/02/04 12:10:12;;;;;;;21.75;14.50;;;9.00;99.90;;;;;;6216947;23;20141;-63
2022/02/04 12:12:59;;;;;;;20.95;14.48;;;9.00;99.90;;;;;;6216694;23;20152;-64
2022/02/04 12:15:31;;;;;;;27.08;15.38;;;9.10;99.90;;;;;;6217350;23;20129;-63
2022/02/04 12:18:02;;;;;;;20.38;13.93;;;9.10;99.90;;;;;;6217153;23;20239;-63
2022/02/04 12:20:55;;;;;;;21.38;15.02;;;9.10;99.90;;;;;;6216980;23;20564;-63
2022/02/04 12:23:27;;;;;;;20.10;14.32;;;9.10;99.90;;;;;;6216958;23;20165;-64
2022/02/04 12:25:56;;;;;;;21.38;14.55;;;9.20;99.90;;;;;;6217285;23;20145;-64
2022/02/04 12:28:51;;;;;;;19.38;13.65;;;9.20;99.90;;;;;;6216640;23;20495;-64
2022/02/04 12:31:30;;;;;;;19.85;13.98;;;9.20;99.90;;;;;;6216731;23;20156;-64
2022/02/04 12:33:56;;;;;;;18.42;13.23;;;9.10;99.90;;;;;;6216885;23;20129;-64
2022/02/04 12:36:29;;;;;;;19.90;13.98;;;9.20;99.90;;;;;;6216868;23;20451;-64
2022/02/04 12:38:57;;;;;;;19.52;14.32;;;9.20;99.90;;;;;;6216698;23;20142;-64
2022/02/04 12:41:24;;;;;;;16.95;12.55;;;9.20;99.90;;;;;;6217110;23;20156;-63
2022/02/04 12:43:52;;;;;;;18.25;13.48;;;9.10;99.90;;;;;;6216902;23;20291;-64
2022/02/04 12:46:18;;;;;;;20.10;14.10;;;9.20;99.90;;;;;;6217234;23;20216;-65
2022/02/04 12:49:08;;;;;;;18.52;12.85;;;9.10;99.90;;;;;;6216836;23;20220;-65
2022/02/04 12:51:43;;;;;;;16.70;12.88;;;9.20;99.90;;;;;;6216771;23;20530;-64
2022/02/04 12:54:10;;;;;;;16.83;12.45;;;9.10;99.90;;;;;;6216623;23;20184;-64
2022/02/04 12:56:39;;;;;;;17.40;13.27;;;9.20;99.90;;;;;;6216933;23;20149;-64
2022/02/04 12:59:40;;;;;;;16.55;12.85;;;9.20;99.90;;;;;;6217001;23;20438;-64
2022/02/04 13:02:19;;;;;;;16.95;12.48;;;9.20;99.90;;;;;;6215625;23;20554;-64
2022/02/04 13:07:46;;;;;;;17.10;12.07;;;9.20;99.90;;;;;;6216811;23;20149;-64
2022/02/04 13:10:25;;;;;;;18.15;11.88;;;9.20;99.90;;;;;;6216694;23;20125;-64
2022/02/04 13:12:54;;;;;;;15.45;11.88;;;9.10;99.90;;;;;;6216680;23;20133;-64
2022/02/04 13:15:20;;;;;;;17.17;12.25;;;9.20;99.90;;;;;;6216502;23;20169;-64
2022/02/04 13:17:46;;;;;;;15.85;12.13;;;9.20;99.90;;;;;;6216313;23;20436;-63
2022/02/04 13:20:15;;;;;;;16.48;11.73;;;9.20;99.90;;;;;;6216610;23;20141;-64
2022/02/04 13:22:41;;;;;;;16.80;11.88;;;9.10;99.90;;;;;;6216240;23;20149;-64
2022/02/04 13:25:12;;;;;;;17.60;12.07;;;9.10;99.90;;;;;;6215333;23;20160;-64
2022/02/04 13:27:38;;;;;;;15.43;11.43;;;9.20;99.90;;;;;;6216443;23;20140;-64
2022/02/04 13:30:23;;;;;;;17.63;11.90;;;9.10;99.90;;;;;;6216410;23;20145;-64
2022/02/04 13:32:49;;;;;;;15.88;11.10;;;9.20;99.90;;;;;;6216385;23;20137;-64
2022/02/04 13:35:35;;;;;;;15.20;10.93;;;9.20;99.90;;;;;;6216390;23;20223;-64
2022/02/04 13:38:07;;;;;;;14.93;11.00;;;9.20;99.90;;;;;;6216569;23;20140;-64
2022/02/04 13:41:16;;;;;;;15.57;10.95;;;9.20;99.90;;;;;;6216500;23;20475;-64
2022/02/04 13:44:19;;;;;;;14.32;10.93;;;9.20;99.90;;;;;;6216207;23;20245;-64
2022/02/04 13:46:43;;;;;;;15.77;11.00;;;9.30;99.90;;;;;;6216049;23;20241;-64
2022/02/04 13:52:16;;;;;;;15.95;10.95;;;9.30;99.90;;;;;;6215563;23;20149;-63
2022/02/04 13:54:56;;;;;;;14.63;10.88;;;9.30;99.90;;;;;;6216670;23;20140;-64
2022/02/04 14:00:14;;;;;;;13.02;9.40;;;9.30;99.90;;;;;;6216597;23;20216;-63
2022/02/04 14:02:50;;;;;;;14.27;9.95;;;9.30;99.90;;;;;;6216686;23;20212;-63
2022/02/04 14:05:27;;;;;;;13.43;9.85;;;9.30;99.90;;;;;;6216116;23;20132;-63
2022/02/04 14:08:07;;;;;;;12.45;9.82;;;9.30;99.90;;;;;;6216277;23;20205;-63
2022/02/04 14:10:42;;;;;;;12.27;9.38;;;9.30;99.90;;;;;;6216548;23;20216;-63
2022/02/04 14:13:10;;;;;;;11.90;9.30;;;9.30;99.90;;;;;;6215548;23;20140;-63
2022/02/04 14:15:37;;;;;;;14.02;10.63;;;9.30;99.90;;;;;;6216471;23;20236;-63
2022/02/04 14:18:09;;;;;;;10.93;9.13;;;9.20;99.90;;;;;;6216916;23;20164;-63
2022/02/04 14:20:36;;;;;;;11.02;8.82;;;9.20;99.90;;;;;;6216470;23;20129;-63
2022/02/04 14:23:03;;;;;;;11.88;9.98;;;9.20;99.90;;;;;;6217342;23;20145;-62
2022/02/04 14:25:28;;;;;;;13.15;10.02;;;9.20;99.90;;;;;;6218013;23;20140;-62
2022/02/04 14:27:58;;;;;;;12.10;9.20;;;9.10;99.90;;;;;;6218449;23;20167;-65
2022/02/04 14:30:29;;;;;;;11.80;10.18;;;9.10;99.90;;;;;;6218116;23;20216;-64
2022/02/04 14:33:12;;;;;;;12.25;9.60;;;9.00;99.90;;;;;;6218523;23;20156;-64
2022/02/04 14:35:57;;;;;;;10.95;9.23;;;9.00;99.90;;;;;;6217983;23;20195;-64
2022/02/04 14:52:16;;;;;;;10.02;8.77;;;8.80;99.90;;;;;;6218654;23;20206;-64
2022/02/04 14:54:50;;;;;;;9.35;7.80;;;8.80;99.90;;;;;;6216794;23;20157;-63
2022/02/04 15:03:02;;;;;;;9.32;8.05;;;8.70;99.90;;;;;;6217843;23;20144;-64
2022/02/04 15:05:36;;;;;;;9.68;8.02;;;8.70;99.90;;;;;;6218055;23;20140;-63
2022/02/04 15:08:05;;;;;;;10.18;8.50;;;8.70;99.90;;;;;;6217887;23;20121;-64
2022/02/04 15:10:32;;;;;;;15.32;8.10;;;8.70;99.90;;;;;;6217428;23;20191;-63
2022/02/04 15:12:58;;;;;;;10.10;8.70;;;8.70;99.90;;;;;;6217838;23;20222;-64
2022/02/04 15:15:23;;;;;;;10.63;8.30;;;8.60;99.90;;;;;;6217820;23;20149;-63
2022/02/04 15:17:49;;;;;;;10.25;8.25;;;8.70;99.90;;;;;;6217612;23;20444;-64
2022/02/04 15:20:15;;;;;;;10.73;8.35;;;8.60;99.90;;;;;;6217389;23;20436;-64
2022/02/04 15:22:40;;;;;;;8.57;7.65;;;8.60;99.90;;;;;;6217334;23;20153;-64
2022/02/04 15:25:16;;;;;;;8.70;7.80;;;8.60;99.90;;;;;;6217359;23;20177;-63
2022/02/04 15:27:50;;;;;;;9.05;7.07;;;8.50;99.90;;;;;;6217776;23;20143;-63
2022/02/04 15:30:23;;;;;;;9.13;7.82;;;8.50;99.90;;;;;;6217491;23;20204;-64
2022/02/04 15:32:49;;;;;;;8.95;7.45;;;8.50;99.90;;;;;;6218455;23;20435;-63
2022/02/04 15:35:14;;;;;;;8.45;7.43;;;8.50;99.90;;;;;;6217161;23;20137;-63
2022/02/04 15:37:40;;;;;;;8.52;7.32;;;8.50;99.90;;;;;;6217673;23;20149;-63
2022/02/04 15:40:06;;;;;;;9.38;7.28;;;8.50;99.90;;;;;;6217358;23;20449;-63
2022/02/04 15:42:35;;;;;;;10.45;6.80;;;8.50;99.90;;;;;;6217275;23;20568;-63
2022/02/04 15:45:16;;;;;;;7.53;6.72;;;8.40;99.90;;;;;;6217217;23;20175;-62
2022/02/04 15:47:58;;;;;;;6.95;6.25;;;8.40;99.90;;;;;;6217709;23;20136;-63
2022/02/04 15:50:32;;;;;;;7.93;6.07;;;8.40;99.90;;;;;;6218340;23;20129;-63
2022/02/04 15:55:33;;;;;;;6.95;6.20;;;8.30;99.90;;;;;;6218490;23;20228;-64
2022/02/04 15:58:23;;;;;;;7.85;6.20;;;8.30;99.90;;;;;;6218643;23;20477;-64
2022/02/04 16:01:12;;;;;;;6.40;5.50;;;8.30;99.90;;;;;;6218066;23;20155;-63
2022/02/04 16:03:49;;;;;;;8.10;5.63;;;8.30;99.90;;;;;;6218380;23;20169;-64
2022/02/04 16:06:17;;;;;;;6.47;5.75;;;8.30;99.90;;;;;;6218233;23;20125;-63
2022/02/04 16:08:42;;;;;;;7.28;5.55;;;8.20;99.90;;;;;;6218294;23;20155;-63
2022/02/04 16:11:55;;;;;;;6.95;5.80;;;8.20;99.90;;;;;;6218360;23;20453;-64
2022/02/04 16:14:09;;;;;;;5.63;5.13;;;8.20;99.90;;;;;;6213428;23;20149;-65
2022/02/04 16:16:41;;;;;;;7.10;5.38;;;8.20;99.90;;;;;;6217111;23;20129;-65
2022/02/04 16:19:24;;;;;;;7.63;5.28;;;8.20;99.90;;;;;;6218149;23;20164;-62
2022/02/04 16:22:08;;;;;;;7.05;4.95;;;8.20;99.90;;;;;;6218082;23;20133;-66
2022/02/04 16:30:05;;;;;;;5.95;4.63;;;8.10;99.90;;;;;;6211592;23;20244;-63
2022/02/04 16:32:31;;;;;;;5.63;4.88;;;8.00;99.90;;;;;;6217810;23;20465;-63
2022/02/04 16:35:00;;;;;;;6.50;4.63;;;8.00;99.90;;;;;;6217748;23;20155;-63
2022/02/04 16:37:36;;;;;;;6.32;4.70;;;8.00;99.90;;;;;;6215695;23;20151;-64
2022/02/04 16:40:11;;;;;;;4.88;4.38;;;8.00;99.90;;;;;;6217069;23;20494;-63
2022/02/04 16:42:37;;;;;;;6.57;4.32;;;8.00;99.90;;;;;;6216976;23;20556;-63
2022/02/04 16:45:04;;;;;;;5.57;4.63;;;8.00;99.90;;;;;;6215542;23;20169;-62
2022/02/04 16:47:29;;;;;;;5.25;3.88;;;8.00;99.90;;;;;;6216823;23;20145;-64
2022/02/04 16:49:57;;;;;;;4.85;4.32;;;8.00;99.90;;;;;;6216610;23;20158;-64
2022/02/04 16:52:22;;;;;;;6.40;4.00;;;8.00;99.90;;;;;;6216928;23;20145;-64
2022/02/04 16:54:48;;;;;;;7.65;4.75;;;8.00;99.90;;;;;;6216563;23;20499;-64
2022/02/04 16:57:13;;;;;;;5.57;4.93;;;8.00;99.90;;;;;;6216640;23;20140;-64
2022/02/04 16:59:39;;;;;;;5.35;4.07;;;8.00;99.90;;;;;;6216638;23;20156;-64
2022/02/04 17:02:06;;;;;;;4.35;3.95;;;8.00;99.90;;;;;;6216573;23;20141;-64
2022/02/04 17:04:31;;;;;;;4.90;4.15;;;8.00;99.90;;;;;;6216520;23;20173;-64
2022/02/04 17:07:07;;;;;;;5.03;3.95;;;8.00;99.90;;;;;;6216653;23;20558;-64
2022/02/04 17:09:37;;;;;;;4.53;3.90;;;8.00;99.90;;;;;;6217084;23;20132;-64
2022/02/04 17:12:06;;;;;;;4.28;3.80;;;8.00;99.90;;;;;;6216569;23;20129;-64
2022/02/04 17:14:34;;;;;;;3.90;3.30;;;8.00;99.90;;;;;;6216591;23;20425;-64
2022/02/04 17:17:00;;;;;;;3.45;3.15;;;8.00;99.90;;;;;;6216532;23;20165;-63
2022/02/04 17:19:31;;;;;;;4.45;3.70;;;8.00;99.90;;;;;;6216625;23;20176;-63
2022/02/04 17:22:02;;;;;;;3.53;3.00;;;8.00;99.90;;;;;;6216572;23;20128;-63
2022/02/04 17:24:27;;;;;;;3.65;3.30;;;8.00;99.90;;;;;;6216830;23;20175;-63
2022/02/04 17:26:53;;;;;;;3.53;3.00;;;8.00;99.90;;;;;;6215543;23;20241;-63
2022/02/04 17:29:18;;;;;;;3.65;3.35;;;8.00;99.90;;;;;;6216406;23;20557;-64
2022/02/04 17:31:44;;;;;;;4.75;3.40;;;8.10;99.90;;;;;;6216257;23;20153;-63
2022/02/04 17:34:12;;;;;;;3.95;3.55;;;8.10;99.90;;;;;;6215311;23;20149;-63
2022/02/04 17:36:38;;;;;;;4.00;3.33;;;8.10;99.90;;;;;;6216477;23;20372;-63
2022/02/04 17:39:20;;;;;;;3.88;3.50;;;8.10;99.90;;;;;;6216401;23;20159;-62
2022/02/04 17:41:47;;;;;;;5.10;3.38;;;8.10;99.90;;;;;;6216812;23;20216;-64
2022/02/04 17:44:15;;;;;;;4.50;3.28;;;8.10;99.90;;;;;;6216294;23;20608;-64
2022/02/04 17:46:41;;;;;;;4.00;3.60;;;8.10;99.90;;;;;;6216614;23;20168;-63